Time;durP1;ratioP1;P1;durP2;ratioP2;P2;SDS_P1;SDS_P2;PMS_P1;PMS_P2;Temp;Humidity;BMP_temperature;BMP_pressure;BME280_temperature;BME280_humidity;BME280_pressure;Samples;Min_cycle;Max_cycle;Signal;HPM_P1;HPM_P2
2021/04/07 00:00:25;;;;;;;1.45;0.30;;;0.40;99.90;;;-0.22;65.39;99986.44;5007738;28;20120;-48
2021/04/07 00:02:52;;;;;;;1.00;0.30;;;0.40;99.90;;;-0.19;65.22;99991.38;5008502;28;20093;-57
2021/04/07 00:05:28;;;;;;;6.28;0.20;;;0.40;99.90;;;-0.05;63.04;99994.78;5009667;28;20045;-54
2021/04/07 00:07:55;;;;;;;1.77;0.38;;;0.50;99.70;;;0.13;62.03;99980.06;5010312;28;20038;-56
2021/04/07 00:10:25;;;;;;;2.00;0.60;;;0.60;98.10;;;-0.02;62.69;99981.00;5008222;28;20447;-53
2021/04/07 00:12:51;;;;;;;1.67;0.30;;;0.60;98.40;;;-0.23;63.65;99977.09;5008177;28;20038;-56
2021/04/07 00:15:21;;;;;;;1.50;0.40;;;0.50;99.10;;;-0.38;64.30;99973.66;5008607;28;20132;-46
2021/04/07 00:17:48;;;;;;;5.13;1.58;;;0.30;99.50;;;-0.41;64.51;99981.53;5009165;28;20041;-52
2021/04/07 00:20:17;;;;;;;2.70;0.45;;;0.20;99.90;;;-0.47;64.57;99985.25;5010179;28;20041;-46
2021/04/07 00:22:43;;;;;;;2.10;0.28;;;0.20;99.90;;;-0.18;62.68;99982.78;5008770;28;20041;-53
2021/04/07 00:25:11;;;;;;;11.02;0.60;;;0.30;97.80;;;-0.11;62.08;99978.97;5009763;28;20065;-57
2021/04/07 00:27:40;;;;;;;1.15;0.25;;;0.40;97.20;;;-0.13;62.09;99985.91;5006076;28;20149;-56
2021/04/07 00:30:09;;;;;;;2.55;0.52;;;0.50;97.00;;;-0.17;62.52;99984.44;5009561;28;20034;-56
2021/04/07 00:32:35;;;;;;;1.40;0.40;;;0.40;98.30;;;-0.23;63.44;99985.59;5008227;28;20061;-46
2021/04/07 00:35:02;;;;;;;0.88;0.32;;;0.40;99.00;;;-0.35;66.17;99988.84;5009705;28;20040;-48
2021/04/07 00:37:28;;;;;;;1.85;0.50;;;0.30;99.90;;;-0.53;67.14;99992.47;5007317;28;20048;-49
2021/04/07 00:39:54;;;;;;;2.67;0.30;;;0.20;99.90;;;-0.66;67.73;99992.31;5007775;28;20142;-58
2021/04/07 00:42:21;;;;;;;0.77;0.30;;;0.00;99.90;;;-0.67;68.29;99998.34;5007189;28;20125;-49
2021/04/07 00:44:48;;;;;;;0.98;0.30;;;0.00;99.90;;;-0.50;66.26;99982.06;5008973;28;20121;-61
2021/04/07 00:47:19;;;;;;;1.63;0.43;;;0.10;99.90;;;-0.51;65.97;99995.78;5008213;28;20038;-44
2021/04/07 00:49:45;;;;;;;2.50;0.35;;;0.00;99.90;;;-0.54;66.57;99999.31;4990479;28;20044;-55
2021/04/07 00:52:11;;;;;;;1.10;0.30;;;0.00;99.90;;;-0.44;66.71;99990.19;5006916;28;20041;-59
2021/04/07 00:54:38;;;;;;;1.67;0.22;;;0.10;99.90;;;-0.31;65.83;99982.66;5006118;28;20034;-47
2021/04/07 00:57:05;;;;;;;2.08;0.40;;;0.20;99.90;;;-0.36;66.38;99982.91;4989224;28;20034;-55
2021/04/07 00:59:31;;;;;;;1.35;0.30;;;0.20;99.90;;;-0.34;66.43;99991.31;4989218;28;20030;-47
2021/04/07 01:01:57;;;;;;;1.63;0.30;;;0.20;99.90;;;-0.28;65.98;99989.34;5006226;28;20450;-57
2021/04/07 01:04:24;;;;;;;1.40;0.30;;;0.20;99.90;;;-0.38;65.61;99987.28;5008866;28;20050;-56
2021/04/07 01:06:51;;;;;;;4.10;0.30;;;0.20;99.90;;;-0.36;65.23;99994.88;4989790;28;20103;-56
2021/04/07 01:09:17;;;;;;;1.42;0.38;;;0.20;99.90;;;-0.39;65.64;100001.00;4991687;28;20046;-50
2021/04/07 01:11:43;;;;;;;1.48;0.25;;;0.20;99.90;;;-0.46;65.31;99991.19;4990670;28;20147;-49
2021/04/07 01:14:09;;;;;;;1.13;0.40;;;0.20;99.90;;;-0.50;66.76;99998.25;5007337;28;20114;-58
2021/04/07 01:16:36;;;;;;;2.55;0.38;;;0.10;99.90;;;-0.46;65.96;99999.69;5006095;28;20085;-54
2021/04/07 01:19:03;;;;;;;0.93;0.25;;;0.10;99.90;;;-0.35;64.70;99992.25;4990558;28;20164;-48
2021/04/07 01:21:29;;;;;;;1.90;0.35;;;0.20;99.90;;;-0.36;63.64;100000.81;4989901;28;20045;-52
2021/04/07 01:23:55;;;;;;;1.17;0.40;;;0.20;99.90;;;-0.34;63.60;100014.38;4992724;28;20038;-51
2021/04/07 01:26:21;;;;;;;1.25;0.30;;;0.20;99.90;;;-0.19;63.08;100004.19;4990533;28;20053;-46
2021/04/07 01:28:47;;;;;;;4.22;0.32;;;0.30;99.90;;;-0.27;63.57;100002.03;4991087;28;20096;-42
2021/04/07 01:31:13;;;;;;;0.90;0.20;;;0.30;99.90;;;-0.38;64.32;100002.66;4989461;28;20084;-47
2021/04/07 01:33:41;;;;;;;1.15;0.40;;;0.20;99.90;;;-0.37;64.37;100006.84;5007789;28;20041;-41
2021/04/07 01:36:07;;;;;;;2.35;0.50;;;0.20;99.90;;;-0.35;64.09;100012.72;4990047;28;20454;-55
2021/04/07 01:38:33;;;;;;;2.13;0.40;;;0.20;99.90;;;-0.39;63.89;100005.28;5006370;28;20413;-49
2021/04/07 01:41:00;;;;;;;0.88;0.38;;;0.20;99.90;;;-0.34;63.58;100014.38;5008764;28;20034;-49
2021/04/07 01:43:27;;;;;;;2.15;0.32;;;0.20;99.90;;;-0.41;63.98;100007.94;5004961;28;20125;-57
2021/04/07 01:45:55;;;;;;;1.45;0.60;;;0.20;99.90;;;-0.46;65.10;100009.94;5007259;28;20116;-52
2021/04/07 01:48:22;;;;;;;3.10;0.40;;;0.10;99.90;;;-0.49;65.27;100015.25;5006076;28;20493;-54
2021/04/07 01:50:49;;;;;;;2.33;0.40;;;0.10;99.90;;;-0.48;65.24;100016.91;4990824;28;20072;-53
2021/04/07 01:53:20;;;;;;;0.73;0.30;;;0.10;99.90;;;-0.50;66.03;100007.66;5005423;28;20040;-49
2021/04/07 01:55:46;;;;;;;3.17;0.20;;;0.10;99.90;;;-0.54;66.31;100017.22;5008358;28;20366;-48
2021/04/07 01:58:14;;;;;;;1.92;0.20;;;0.00;99.90;;;-0.58;66.53;100026.00;5006929;28;20346;-53
2021/04/07 02:00:40;;;;;;;3.25;0.30;;;0.00;99.90;;;-0.61;65.45;100018.47;5008521;28;20052;-47
2021/04/07 02:03:07;;;;;;;1.00;0.30;;;0.00;99.90;;;-0.65;66.15;100019.56;5005591;28;20045;-58
2021/04/07 02:05:33;;;;;;;1.00;0.20;;;0.00;99.90;;;-0.53;63.93;100028.28;5008044;28;20647;-54
2021/04/07 02:07:59;;;;;;;0.60;0.20;;;0.00;99.90;;;-0.41;63.01;100022.47;5006556;28;20351;-46
2021/04/07 02:10:26;;;;;;;1.48;0.30;;;0.10;99.80;;;-0.48;63.23;100027.13;5007772;28;20022;-49
2021/04/07 02:12:57;;;;;;;0.95;0.20;;;0.10;99.60;;;-0.62;64.36;100023.69;5006614;28;20068;-54
2021/04/07 02:15:24;;;;;;;2.17;0.17;;;0.00;99.90;;;-0.57;63.63;100016.59;5008427;28;20042;-53
2021/04/07 02:17:51;;;;;;;3.28;0.35;;;0.00;99.90;;;-0.56;63.91;100024.16;5005791;28;20045;-44
2021/04/07 02:20:19;;;;;;;1.15;0.32;;;0.00;99.90;;;-0.57;63.99;100011.47;5008365;28;20038;-46
2021/04/07 02:22:48;;;;;;;1.98;0.20;;;0.00;99.90;;;-0.61;63.81;100007.41;5005914;28;20038;-56
2021/04/07 02:25:15;;;;;;;1.00;0.25;;;0.00;99.90;;;-0.66;63.91;100007.66;5008217;28;20042;-49
2021/04/07 02:27:41;;;;;;;0.80;0.30;;;-0.10;99.90;;;-0.78;65.09;100016.00;5007319;28;20037;-51
2021/04/07 02:30:16;;;;;;;1.85;0.32;;;-0.20;99.90;;;-0.83;65.66;100008.59;5007942;28;20482;-57
2021/04/07 02:32:42;;;;;;;1.48;0.45;;;-0.20;99.90;;;-1.09;66.75;100004.91;5007240;28;20030;-53
2021/04/07 02:35:10;;;;;;;2.00;0.50;;;-0.40;99.90;;;-1.29;66.71;100011.97;5007610;28;20064;-46
2021/04/07 02:37:36;;;;;;;1.73;0.40;;;-0.60;99.90;;;-1.36;68.20;100008.91;5006147;28;20409;-41
2021/04/07 02:40:03;;;;;;;2.65;0.40;;;-0.70;99.90;;;-1.35;67.69;100010.53;5004771;28;20521;-46
2021/04/07 02:42:29;;;;;;;2.45;0.50;;;-0.70;99.90;;;-1.27;66.97;100018.63;4988312;28;20072;-55
2021/04/07 02:44:55;;;;;;;0.88;0.30;;;-0.70;99.90;;;-1.18;66.50;100013.06;5006372;28;20030;-52
2021/04/07 02:47:21;;;;;;;2.20;0.30;;;-0.60;99.90;;;-1.15;66.68;100019.72;5003738;28;20418;-47
2021/04/07 02:49:47;;;;;;;1.77;0.40;;;-0.60;99.90;;;-1.21;66.94;100023.44;5008113;28;20034;-50
2021/04/07 02:52:13;;;;;;;0.88;0.30;;;-0.50;99.90;;;-1.35;67.65;100016.47;5006100;28;20042;-50
2021/04/07 02:54:39;;;;;;;2.33;0.57;;;-0.70;99.90;;;-1.27;68.24;100030.59;5008112;28;20045;-56
2021/04/07 02:57:06;;;;;;;0.82;0.30;;;-0.70;99.90;;;-1.20;68.34;100017.41;5005609;28;20030;-51
2021/04/07 02:59:34;;;;;;;1.10;0.30;;;-0.70;99.90;;;-1.16;67.88;100018.91;5007831;28;20037;-49
2021/04/07 03:02:01;;;;;;;3.47;0.30;;;-0.60;99.90;;;-1.11;68.63;100021.22;5005261;28;20437;-60
2021/04/07 03:04:27;;;;;;;0.93;0.20;;;-0.60;99.90;;;-1.08;68.54;100016.78;5007702;28;20054;-49
2021/04/07 03:06:53;;;;;;;1.33;0.20;;;-0.50;99.90;;;-1.07;67.80;100012.47;5006106;28;20038;-48
2021/04/07 03:09:19;;;;;;;1.60;0.25;;;-0.60;99.90;;;-1.02;67.10;100021.56;5007911;28;20030;-49
2021/04/07 03:11:45;;;;;;;2.25;0.45;;;-0.50;99.90;;;-0.96;66.27;100024.69;5006930;28;20087;-50
2021/04/07 03:14:11;;;;;;;0.90;0.20;;;-0.40;99.90;;;-0.92;66.48;100024.44;5007784;28;20030;-47
2021/04/07 03:16:37;;;;;;;2.58;0.25;;;-0.40;99.90;;;-0.88;66.81;100027.66;5007190;28;20045;-52
2021/04/07 03:19:03;;;;;;;4.43;0.43;;;-0.40;99.90;;;-0.91;66.85;100035.47;5004225;28;20053;-50
2021/04/07 03:21:29;;;;;;;1.80;0.45;;;-0.40;99.90;;;-0.95;66.59;100037.41;5008932;28;20449;-53
2021/04/07 03:23:55;;;;;;;0.80;0.30;;;-0.40;99.90;;;-1.00;67.89;100031.72;5010965;28;20081;-52
2021/04/07 03:26:21;;;;;;;1.80;0.20;;;-0.40;99.90;;;-1.01;67.66;100037.72;5010239;28;20038;-53
2021/04/07 03:28:47;;;;;;;2.63;0.35;;;-0.40;99.90;;;-1.00;68.33;100034.28;5010182;28;20096;-50
2021/04/07 03:31:13;;;;;;;0.57;0.20;;;-0.50;99.90;;;-1.02;69.65;100047.13;5007979;28;20600;-45
2021/04/07 03:33:39;;;;;;;1.92;0.32;;;-0.40;99.90;;;-1.04;68.96;100045.56;4870577;23;20097;-51
2021/04/07 03:36:07;;;;;;;1.02;0.38;;;-0.40;99.90;;;-1.08;69.28;100052.56;5009823;28;20069;-48
2021/04/07 03:38:34;;;;;;;0.40;0.30;;;-0.50;99.90;;;-1.10;69.18;100051.81;5025757;28;20034;-55
2021/04/07 03:41:00;;;;;;;1.33;0.30;;;-0.50;99.90;;;-1.07;69.37;100053.41;5025419;28;20096;-60
2021/04/07 03:43:27;;;;;;;0.77;0.30;;;-0.50;99.90;;;-1.11;68.98;100054.47;5010357;28;20041;-54
2021/04/07 03:45:56;;;;;;;1.45;0.30;;;-0.50;99.90;;;-1.06;68.30;100065.28;5009789;28;20081;-50
2021/04/07 03:48:28;;;;;;;2.20;0.40;;;-0.50;99.90;;;-1.04;68.06;100059.19;5009491;28;20526;-53
2021/04/07 03:50:55;;;;;;;0.60;0.32;;;-0.50;99.90;;;-1.03;67.56;100058.25;5010185;28;20129;-59
2021/04/07 03:53:22;;;;;;;1.42;0.20;;;-0.50;99.90;;;-1.03;67.38;100060.81;4992775;28;20039;-41
2021/04/07 03:55:52;;;;;;;0.90;0.30;;;-0.50;99.90;;;-1.00;67.09;100062.41;5010248;28;20457;-59
2021/04/07 03:58:19;;;;;;;2.17;0.40;;;-0.40;99.90;;;-1.03;66.96;100052.31;5010085;28;20037;-57
2021/04/07 04:00:46;;;;;;;1.92;0.52;;;-0.50;99.90;;;-1.11;66.75;100060.41;5007652;28;20121;-53
2021/04/07 04:03:12;;;;;;;3.97;0.50;;;-0.50;99.90;;;-1.19;66.90;100062.53;5010136;28;20088;-43
2021/04/07 04:05:38;;;;;;;1.38;0.40;;;-0.60;99.90;;;-1.26;67.21;100058.63;5009962;28;20034;-43
2021/04/07 04:08:05;;;;;;;2.70;0.43;;;-0.70;99.90;;;-1.23;67.54;100062.75;5009965;28;20041;-47
2021/04/07 04:10:32;;;;;;;1.40;0.20;;;-0.70;99.90;;;-1.15;67.37;100064.03;5009739;28;20436;-58
2021/04/07 04:12:59;;;;;;;0.80;0.25;;;-0.60;99.90;;;-1.09;67.46;100063.69;5009584;28;20077;-46
2021/04/07 04:15:25;;;;;;;2.03;0.22;;;-0.60;99.90;;;-1.04;66.60;100064.28;5009085;28;20038;-48
2021/04/07 04:17:52;;;;;;;1.98;0.38;;;-0.50;99.90;;;-1.05;66.90;100070.31;5009542;28;20117;-50
2021/04/07 04:20:19;;;;;;;2.47;0.45;;;-0.50;99.90;;;-1.10;66.35;100079.13;5008274;28;20029;-52
2021/04/07 04:22:46;;;;;;;3.40;0.35;;;-0.50;99.90;;;-1.08;67.53;100079.88;5009593;28;20040;-53
2021/04/07 04:25:18;;;;;;;2.33;0.30;;;-0.50;99.90;;;-1.11;67.72;100088.53;5008693;28;20437;-48
2021/04/07 04:27:44;;;;;;;2.00;0.38;;;-0.50;99.90;;;-1.08;67.54;100092.66;5008764;28;20042;-45
2021/04/07 04:30:14;;;;;;;0.90;0.30;;;-0.50;99.90;;;-1.05;67.39;100097.59;5009586;28;20040;-56
2021/04/07 04:32:40;;;;;;;1.05;0.30;;;-0.40;99.90;;;-1.04;67.73;100089.84;5007907;28;20123;-47
2021/04/07 04:35:08;;;;;;;2.08;0.55;;;-0.50;99.90;;;-1.04;68.04;100100.09;4991923;28;20104;-56
2021/04/07 04:37:35;;;;;;;1.50;0.40;;;-0.50;99.90;;;-1.05;67.82;100113.78;5008315;28;20042;-55
2021/04/07 04:40:01;;;;;;;2.78;0.20;;;-0.50;99.90;;;-1.03;67.96;100117.06;5009921;28;20183;-55
2021/04/07 04:42:27;;;;;;;0.95;0.20;;;-0.40;99.90;;;-1.03;68.16;100114.53;5009672;28;20034;-49
2021/04/07 04:44:53;;;;;;;1.20;0.30;;;-0.50;99.90;;;-0.98;67.72;100110.91;5009558;28;20500;-45
2021/04/07 04:47:19;;;;;;;0.90;0.30;;;-0.40;99.90;;;-0.94;68.11;100112.38;5008364;28;20472;-52
2021/04/07 04:49:45;;;;;;;2.38;0.50;;;-0.40;99.90;;;-0.89;68.43;100124.00;5009208;28;20030;-50
2021/04/07 04:52:11;;;;;;;1.50;0.40;;;-0.30;99.90;;;-0.85;68.33;100117.00;5009077;28;20120;-55
2021/04/07 04:54:37;;;;;;;2.58;0.40;;;-0.30;99.90;;;-0.81;67.52;100116.75;5009007;28;20562;-53
2021/04/07 04:57:03;;;;;;;7.63;0.50;;;-0.20;99.90;;;-0.73;67.34;100118.91;5008565;28;20038;-53
2021/04/07 04:59:29;;;;;;;2.85;0.38;;;-0.20;99.90;;;-0.65;66.27;100132.13;5008674;28;20029;-46
2021/04/07 05:01:55;;;;;;;1.10;0.32;;;-0.10;99.90;;;-0.59;66.11;100123.31;5007118;28;20038;-44
2021/04/07 05:04:21;;;;;;;4.07;0.40;;;0.00;99.90;;;-0.55;66.13;100133.31;5009334;28;20452;-58
2021/04/07 05:06:47;;;;;;;1.33;0.40;;;0.00;99.90;;;-0.48;66.73;100144.88;5008795;28;20042;-50
2021/04/07 05:09:13;;;;;;;2.25;0.52;;;0.10;99.90;;;-0.44;66.29;100155.72;5007924;28;20038;-60
2021/04/07 05:11:39;;;;;;;2.88;0.65;;;0.20;99.90;;;-0.38;66.25;100156.22;5008765;28;20061;-56
2021/04/07 05:14:05;;;;;;;2.38;0.40;;;0.20;99.90;;;-0.25;65.97;100155.56;5009053;28;20034;-58
2021/04/07 05:16:33;;;;;;;2.33;0.32;;;0.40;99.90;;;0.24;65.18;100159.63;5008954;28;20115;-48
2021/04/07 05:19:00;;;;;;;2.17;0.40;;;1.10;99.90;;;0.25;64.16;100163.84;5006065;28;20038;-57
2021/04/07 05:21:26;;;;;;;0.85;0.30;;;1.30;99.00;;;0.12;64.28;100160.31;5008549;28;20477;-54
2021/04/07 05:23:52;;;;;;;2.63;0.70;;;1.00;99.50;;;0.12;64.56;100170.56;4990956;28;20030;-57
2021/04/07 05:26:18;;;;;;;2.50;0.50;;;0.90;99.90;;;0.09;65.11;100178.41;5008596;28;20484;-58
2021/04/07 05:28:46;;;;;;;2.20;0.70;;;0.90;99.90;;;0.10;65.55;100174.13;5008467;28;20124;-48
2021/04/07 05:31:13;;;;;;;1.40;0.50;;;0.90;99.90;;;0.18;65.56;100174.50;5007589;28;20073;-59
2021/04/07 05:33:43;;;;;;;3.80;0.93;;;0.80;99.90;;;0.19;65.60;100176.16;5007197;28;20124;-54
2021/04/07 05:36:12;;;;;;;2.45;0.68;;;0.90;99.90;;;0.26;66.76;100180.03;5008180;28;20092;-52
2021/04/07 05:38:38;;;;;;;3.03;0.50;;;0.90;99.90;;;0.19;66.81;100179.56;5008605;28;20030;-50
2021/04/07 05:41:06;;;;;;;0.90;0.43;;;0.90;99.90;;;0.27;68.17;100179.97;5007299;28;20346;-57
2021/04/07 05:43:34;;;;;;;4.78;0.40;;;1.10;99.90;;;0.32;67.66;100180.53;5007758;28;20052;-55
2021/04/07 05:46:00;;;;;;;0.98;0.30;;;1.10;99.90;;;0.47;67.60;100188.28;5008161;28;20301;-50
2021/04/07 05:48:27;;;;;;;1.67;0.30;;;1.30;99.90;;;0.78;64.47;100195.00;5008016;28;20269;-58
2021/04/07 05:50:55;;;;;;;4.47;0.30;;;1.50;99.90;;;1.12;61.50;100198.97;5005528;28;20042;-57
2021/04/07 05:53:22;;;;;;;2.38;0.50;;;2.10;96.30;;;1.52;61.12;100208.50;4990771;28;20091;-53
2021/04/07 05:55:51;;;;;;;2.75;0.93;;;2.60;94.90;;;2.25;59.70;100196.22;5008113;28;20462;-52
2021/04/07 05:58:18;;;;;;;2.28;0.68;;;3.60;92.10;;;2.94;58.00;100195.06;5008285;28;20049;-58
2021/04/07 06:00:45;;;;;;;4.43;0.65;;;4.70;86.40;;;3.38;57.55;100198.94;5006667;28;20056;-59
2021/04/07 06:03:12;;;;;;;1.20;0.40;;;5.60;80.50;;;3.55;56.86;100205.53;5022674;28;20033;-45
2021/04/07 06:05:40;;;;;;;1.58;0.40;;;5.80;75.70;;;3.68;55.94;100208.91;5008245;28;20104;-55
2021/04/07 06:08:08;;;;;;;3.05;0.47;;;6.00;73.10;;;3.78;55.13;100214.25;5022771;28;20034;-48
2021/04/07 06:10:40;;;;;;;3.05;0.50;;;6.10;71.90;;;3.99;54.59;100207.56;5022633;28;20030;-57
2021/04/07 06:13:07;;;;;;;2.22;0.30;;;6.30;69.10;;;4.12;53.99;100213.50;5006815;28;20037;-62
2021/04/07 06:15:33;;;;;;;4.43;0.45;;;6.60;67.70;;;4.40;53.00;100203.75;5007616;28;20034;-59
2021/04/07 06:18:02;;;;;;;2.25;0.70;;;6.90;68.30;;;4.23;52.61;100200.66;5006193;28;20030;-63
2021/04/07 06:20:31;;;;;;;1.35;0.43;;;6.80;65.80;;;4.34;52.96;100203.28;5022745;28;20116;-54
2021/04/07 06:22:58;;;;;;;3.28;0.45;;;6.90;65.50;;;4.14;53.86;100201.31;4989327;28;20104;-53
2021/04/07 06:25:25;;;;;;;3.53;0.40;;;6.60;66.10;;;3.81;52.49;100208.84;5007973;28;20078;-56
2021/04/07 06:27:57;;;;;;;3.55;0.60;;;6.20;65.50;;;3.69;53.82;100202.00;5007879;28;20030;-59
2021/04/07 06:33:15;;;;;;;1.02;0.30;;;6.00;67.20;;;3.65;52.90;100219.44;5006689;28;20394;-48
2021/04/07 06:35:46;;;;;;;3.22;0.50;;;5.70;66.70;;;3.70;51.78;100227.66;5007891;28;20404;-57
2021/04/07 06:38:13;;;;;;;4.03;0.38;;;5.50;66.60;;;3.44;53.00;100226.88;5008025;28;20038;-48
2021/04/07 06:40:39;;;;;;;1.63;0.40;;;5.10;68.30;;;3.48;53.07;100223.16;5007302;28;20048;-56
2021/04/07 06:43:05;;;;;;;2.22;0.50;;;4.80;69.40;;;3.54;52.96;100227.06;5006537;28;20037;-48
2021/04/07 06:45:33;;;;;;;2.08;0.50;;;4.70;70.40;;;3.18;54.41;100225.25;4988161;28;20552;-57
2021/04/07 06:48:00;;;;;;;2.28;0.32;;;4.40;72.40;;;2.96;55.07;100221.53;4988148;28;20088;-62
2021/04/07 06:50:27;;;;;;;1.50;0.45;;;4.00;75.10;;;3.03;54.78;100210.81;4970304;28;20066;-55
2021/04/07 06:52:59;;;;;;;2.50;0.50;;;3.90;75.20;;;2.96;54.35;100216.38;4990449;28;20029;-49
2021/04/07 06:55:27;;;;;;;1.15;0.40;;;3.80;74.40;;;3.36;54.27;100218.00;5001330;28;20119;-51
2021/04/07 06:57:54;;;;;;;1.27;0.28;;;3.90;76.30;;;3.74;52.36;100228.28;5002298;28;20074;-50
2021/04/07 07:00:23;;;;;;;1.73;0.40;;;4.30;73.60;;;4.06;51.82;100218.28;5003923;28;20535;-54
2021/04/07 07:03:19;;;;;;;1.52;0.38;;;4.70;73.00;;;4.39;50.61;100209.84;5008275;28;20142;-38
2021/04/07 07:05:54;;;;;;;2.28;0.40;;;4.90;72.50;;;4.65;49.28;100219.94;5007830;28;20030;-55
2021/04/07 07:08:20;;;;;;;0.95;0.38;;;5.30;69.50;;;5.02;48.99;100218.97;5009757;28;20065;-55
2021/04/07 07:10:52;;;;;;;1.17;0.38;;;5.60;68.60;;;5.53;47.21;100219.34;5008696;28;20409;-61
2021/04/07 07:13:26;;;;;;;1.48;0.20;;;6.00;68.20;;;5.50;47.31;100224.75;5011020;28;20317;-59
2021/04/07 07:15:53;;;;;;;2.20;0.50;;;6.20;65.90;;;5.16;46.85;100226.50;5007933;28;20037;-53
2021/04/07 07:18:27;;;;;;;2.15;0.57;;;6.10;65.00;;;5.05;47.76;100224.72;5008075;28;20164;-48
2021/04/07 07:20:55;;;;;;;1.23;0.45;;;6.00;65.30;;;4.94;48.34;100222.94;5010232;28;20046;-56
2021/04/07 07:23:26;;;;;;;1.85;0.40;;;5.90;65.50;;;5.38;47.79;100233.41;5009730;28;20460;-48
2021/04/07 07:26:05;;;;;;;1.08;0.40;;;6.20;65.20;;;5.76;46.61;100240.81;5009071;28;20385;-59
2021/04/07 07:28:54;;;;;;;2.05;0.52;;;6.40;65.00;;;5.96;45.47;100237.53;5007454;28;20075;-57
2021/04/07 07:31:26;;;;;;;0.60;0.20;;;6.60;64.80;;;6.11;44.60;100241.50;4973625;28;20057;-52
2021/04/07 07:33:55;;;;;;;2.25;0.32;;;6.70;63.00;;;6.09;46.21;100235.63;5005632;28;20150;-49
2021/04/07 07:36:21;;;;;;;2.22;0.30;;;6.70;64.00;;;6.52;45.73;100232.19;5009714;28;20041;-54
2021/04/07 07:38:53;;;;;;;1.35;0.32;;;7.00;63.50;;;5.94;45.23;100235.06;5008776;28;20038;-53
2021/04/07 07:41:34;;;;;;;1.45;0.35;;;6.60;62.60;;;5.95;44.80;100236.69;5010565;28;20458;-52
2021/04/07 07:44:00;;;;;;;5.68;0.40;;;6.60;63.00;;;5.93;46.50;100248.09;5008344;28;20489;-48
2021/04/07 07:46:27;;;;;;;1.17;0.30;;;6.60;64.30;;;5.91;46.51;100247.41;5009783;28;20037;-57
2021/04/07 07:48:54;;;;;;;0.93;0.25;;;6.60;63.60;;;6.47;45.40;100242.09;5009649;28;20156;-54
2021/04/07 07:51:26;;;;;;;1.48;0.30;;;6.90;63.00;;;6.57;44.16;100240.41;4992342;28;20057;-57
2021/04/07 07:53:54;;;;;;;2.17;0.40;;;7.20;61.60;;;6.78;43.79;100241.22;5009176;28;20037;-50
2021/04/07 07:56:34;;;;;;;0.95;0.20;;;7.30;61.20;;;6.95;44.14;100242.44;5005196;28;20037;-46
2021/04/07 07:59:00;;;;;;;2.45;0.30;;;7.50;61.70;;;7.42;42.77;100235.88;5007946;28;20038;-62
2021/04/07 08:01:26;;;;;;;1.10;0.30;;;7.80;59.20;;;7.51;41.31;100236.88;4973913;28;20482;-49
2021/04/07 08:03:52;;;;;;;1.83;0.30;;;8.00;57.50;;;7.82;41.51;100242.81;4976634;28;20136;-60
2021/04/07 08:06:19;;;;;;;3.78;0.20;;;8.10;58.70;;;8.58;40.49;100236.94;5008652;28;20208;-48
2021/04/07 08:08:45;;;;;;;1.20;0.30;;;8.80;59.00;;;9.17;39.65;100242.88;5010535;28;20053;-54
2021/04/07 08:11:14;;;;;;;1.67;0.30;;;9.50;57.10;;;9.29;37.85;100246.94;5009711;28;20543;-58
2021/04/07 08:13:46;;;;;;;0.82;0.20;;;9.90;54.50;;;9.26;38.79;100245.44;5011247;28;20029;-55
2021/04/07 08:16:19;;;;;;;2.53;0.40;;;9.90;54.20;;;9.09;37.34;100246.16;5004365;28;20026;-49
2021/04/07 08:18:47;;;;;;;2.22;0.20;;;10.00;54.40;;;8.89;39.56;100253.19;4989301;28;20504;-54
2021/04/07 08:21:19;;;;;;;3.47;0.22;;;9.80;53.80;;;8.97;38.23;100248.13;5010752;28;20041;-58
2021/04/07 08:23:54;;;;;;;1.30;0.20;;;9.70;53.10;;;9.34;36.40;100249.94;5007894;28;20444;-50
2021/04/07 08:26:28;;;;;;;1.80;0.30;;;10.00;52.10;;;9.32;37.07;100251.88;5007916;28;20034;-54
2021/04/07 08:28:55;;;;;;;1.80;0.20;;;9.90;52.10;;;9.54;37.07;100261.09;5007604;28;20045;-52
2021/04/07 08:31:22;;;;;;;2.83;0.40;;;10.10;50.90;;;9.86;36.69;100260.69;5008891;28;20125;-48
2021/04/07 08:33:55;;;;;;;0.80;0.30;;;10.40;51.00;;;10.57;35.81;100263.38;5006323;28;20088;-50
2021/04/07 08:36:25;;;;;;;0.52;0.20;;;11.00;51.30;;;10.72;35.58;100269.72;5008539;28;20042;-52
2021/04/07 08:39:09;;;;;;;1.98;0.20;;;11.30;50.20;;;10.89;34.16;100262.81;5009241;28;20128;-48
2021/04/07 08:41:35;;;;;;;1.20;0.20;;;11.50;49.60;;;10.99;35.27;100266.16;4991723;28;20041;-49
2021/04/07 08:44:03;;;;;;;3.15;0.28;;;11.70;49.30;;;11.13;34.93;100268.22;5008017;28;20029;-56
2021/04/07 08:46:52;;;;;;;1.13;0.20;;;11.80;49.00;;;11.07;32.92;100261.00;5006470;28;20396;-53
2021/04/07 08:49:35;;;;;;;2.63;0.20;;;11.80;48.50;;;10.43;32.71;100272.53;5005830;28;20065;-54
2021/04/07 08:52:20;;;;;;;0.95;0.30;;;11.40;46.50;;;10.60;33.96;100279.53;5006074;28;20544;-54
2021/04/07 08:54:52;;;;;;;1.42;0.30;;;11.30;47.90;;;10.98;34.17;100275.78;5011178;28;20134;-52
2021/04/07 08:57:36;;;;;;;0.95;0.20;;;11.50;48.90;;;10.66;31.49;100275.53;5016533;28;20045;-48
2021/04/07 09:00:13;;;;;;;1.20;0.20;;;11.40;48.00;;;10.38;31.52;100276.56;4999001;28;20045;-55
2021/04/07 09:02:55;;;;;;;1.58;0.30;;;11.20;45.80;;;10.33;31.57;100273.59;5001496;28;20315;-49
2021/04/07 09:05:35;;;;;;;2.33;0.40;;;11.10;45.90;;;11.08;32.47;100274.88;5001326;28;20275;-48
2021/04/07 09:08:03;;;;;;;1.33;0.22;;;11.50;46.70;;;11.69;32.58;100274.75;5001754;28;20053;-57
2021/04/07 09:10:50;;;;;;;1.33;0.30;;;12.00;46.60;;;11.95;29.32;100280.75;5001057;28;20057;-50
2021/04/07 09:13:22;;;;;;;0.63;0.20;;;12.60;44.30;;;11.77;32.29;100281.81;5000920;28;20401;-50
2021/04/07 09:16:02;;;;;;;0.63;0.20;;;12.40;46.10;;;11.39;30.13;100283.03;5004267;28;20042;-50
2021/04/07 09:18:36;;;;;;;1.73;0.30;;;12.40;43.60;;;11.10;32.40;100284.19;5024747;28;20041;-48
2021/04/07 09:21:09;;;;;;;1.42;0.20;;;12.10;44.70;;;11.46;31.74;100289.28;5006693;28;20045;-56
2021/04/07 09:23:38;;;;;;;2.92;0.20;;;12.20;44.50;;;11.49;31.06;100289.78;5006946;28;20038;-55
2021/04/07 09:26:14;;;;;;;1.17;0.20;;;12.30;43.30;;;11.73;29.49;100298.75;4997386;28;20163;-50
2021/04/07 09:28:45;;;;;;;1.02;0.20;;;12.40;43.60;;;11.61;29.98;100295.56;5000698;28;20133;-49
2021/04/07 09:31:32;;;;;;;0.80;0.20;;;12.40;42.80;;;11.71;28.66;100290.25;5004190;28;20112;-47
2021/04/07 09:33:58;;;;;;;3.00;0.20;;;12.40;41.90;;;11.36;30.75;100305.03;5007068;28;20069;-57
2021/04/07 09:36:32;;;;;;;2.85;0.20;;;12.10;42.90;;;11.50;29.38;100306.28;5008824;28;20029;-53
2021/04/07 09:39:05;;;;;;;1.05;0.20;;;12.20;42.50;;;11.59;29.88;100305.34;5004089;28;20046;-53
2021/04/07 09:41:37;;;;;;;0.57;0.20;;;12.20;42.80;;;12.01;29.13;100315.84;4998785;28;20180;-55
2021/04/07 09:44:05;;;;;;;1.30;0.20;;;12.50;42.10;;;12.11;29.41;100306.09;5004661;28;20057;-47
2021/04/07 09:46:34;;;;;;;2.55;0.40;;;12.80;42.00;;;12.41;29.04;100312.53;5020740;28;20038;-51
2021/04/07 09:49:06;;;;;;;1.73;0.10;;;12.90;42.20;;;12.47;27.76;100311.09;5005511;28;20030;-53
2021/04/07 09:51:45;;;;;;;1.75;0.10;;;13.10;40.70;;;12.83;27.42;100306.38;4989421;28;20065;-58
2021/04/07 09:54:20;;;;;;;3.50;0.20;;;13.30;41.00;;;12.44;24.99;100314.00;4987566;28;20049;-54
2021/04/07 09:57:03;;;;;;;0.57;0.20;;;13.30;39.30;;;12.91;26.62;100315.03;5005973;28;20037;-50
2021/04/07 09:59:47;;;;;;;0.50;0.20;;;13.30;40.00;;;12.43;24.41;100312.38;4989473;28;20168;-53
2021/04/07 10:02:27;;;;;;;0.52;0.10;;;13.20;37.80;;;12.66;24.94;100302.97;5005420;28;20038;-50
2021/04/07 10:04:55;;;;;;;0.38;0.10;;;13.10;38.20;;;12.90;25.69;100308.19;5007573;28;20133;-55
2021/04/07 10:07:24;;;;;;;0.77;0.10;;;13.30;38.20;;;13.16;23.36;100304.63;5004844;28;20061;-53
2021/04/07 10:09:56;;;;;;;1.42;0.10;;;13.50;36.20;;;13.20;22.32;100301.50;4989623;28;20083;-57
2021/04/07 10:12:25;;;;;;;0.35;0.10;;;13.70;33.80;;;13.14;22.23;100298.72;5008908;28;20378;-49
2021/04/07 10:14:58;;;;;;;1.65;0.10;;;13.60;31.80;;;13.33;22.07;100302.78;5006244;28;22116;-51
2021/04/07 10:17:28;;;;;;;1.65;0.10;;;13.70;34.00;;;13.06;21.72;100314.41;4996613;28;20037;-53
2021/04/07 10:19:55;;;;;;;0.20;0.10;;;13.60;33.20;;;13.41;21.95;100303.59;5007119;28;20022;-50
2021/04/07 10:22:27;;;;;;;0.40;0.00;;;13.80;32.70;;;13.46;21.02;100303.91;5007157;28;20037;-51
2021/04/07 10:25:22;;;;;;;0.40;0.10;;;13.90;33.00;;;13.77;21.37;100297.91;4974494;28;20030;-52
2021/04/07 10:27:49;;;;;;;0.85;0.10;;;14.20;33.20;;;14.14;21.08;100308.59;5004085;28;20499;-54
2021/04/07 10:30:18;;;;;;;0.60;0.10;;;14.50;32.90;;;14.66;20.12;100301.91;5007777;28;20048;-58